Time;durP1;ratioP1;P1;durP2;ratioP2;P2;SDS_P1;SDS_P2;PMS_P1;PMS_P2;Temp;Humidity;BMP_temperature;BMP_pressure;BME280_temperature;BME280_humidity;BME280_pressure;Samples;Min_cycle;Max_cycle;Signal;HPM_P1;HPM_P2
2022/11/29 00:01:04;;;;;;;0.10;0.10;;;2.30;99.90;;;;;;4981790;28;20084;-75
2022/11/29 00:03:30;;;;;;;6.15;5.88;;;1.80;99.90;;;;;;4982090;28;20029;-75
2022/11/29 00:06:02;;;;;;;0.15;0.15;;;1.80;99.90;;;;;;4982053;28;20050;-75
2022/11/29 00:08:28;;;;;;;0.00;0.00;;;1.80;99.90;;;;;;4982283;28;20113;-75
2022/11/29 00:10:54;;;;;;;0.10;0.10;;;1.80;99.90;;;;;;4982215;28;20035;-75
2022/11/29 00:13:20;;;;;;;0.70;0.70;;;1.70;99.90;;;;;;4982038;28;20018;-75
2022/11/29 00:15:45;;;;;;;1.25;1.25;;;1.70;99.90;;;;;;4963562;28;20042;-75
2022/11/29 00:18:11;;;;;;;24.95;23.17;;;1.70;99.90;;;;;;4981368;28;20156;-74
2022/11/29 00:20:38;;;;;;;0.10;0.10;;;1.60;99.90;;;;;;4963851;28;20041;-75
2022/11/29 00:23:04;;;;;;;0.10;0.10;;;3.10;99.90;;;;;;4983431;28;20041;-75
2022/11/29 00:25:29;;;;;;;0.00;0.00;;;1.80;99.90;;;;;;4981571;28;20037;-75
2022/11/29 00:27:55;;;;;;;0.10;0.10;;;1.80;99.90;;;;;;4982152;28;20030;-75
2022/11/29 00:30:21;;;;;;;0.15;0.15;;;1.80;99.90;;;;;;4982671;28;20409;-75
2022/11/29 00:32:47;;;;;;;3.72;3.53;;;1.80;99.90;;;;;;4983748;28;20090;-76
2022/11/29 00:35:13;;;;;;;0.15;0.15;;;1.70;99.90;;;;;;4988178;28;20092;-75
2022/11/29 00:37:39;;;;;;;0.15;0.15;;;1.70;99.90;;;;;;4988547;28;20458;-76
2022/11/29 00:40:05;;;;;;;0.20;0.20;;;1.60;99.90;;;;;;4970569;28;20104;-76
2022/11/29 00:42:31;;;;;;;0.10;0.10;;;1.70;99.90;;;;;;4986879;28;20026;-75
2022/11/29 00:44:57;;;;;;;8.75;8.40;;;1.60;99.90;;;;;;4981599;28;20383;-75
2022/11/29 00:47:23;;;;;;;3.50;3.30;;;1.60;99.90;;;;;;4982308;28;20033;-75
2022/11/29 00:49:48;;;;;;;0.10;0.10;;;1.60;99.90;;;;;;4981945;28;20517;-75
2022/11/29 00:52:14;;;;;;;0.20;0.20;;;1.60;99.90;;;;;;4982664;28;20030;-75
2022/11/29 00:54:41;;;;;;;0.20;0.20;;;1.60;99.90;;;;;;4981979;28;20393;-75
2022/11/29 00:57:07;;;;;;;37.63;33.70;;;1.60;99.90;;;;;;4981659;28;20034;-75
2022/11/29 00:59:33;;;;;;;0.13;0.13;;;1.50;99.90;;;;;;4980873;28;20022;-75
2022/11/29 01:01:58;;;;;;;0.43;0.43;;;1.50;99.90;;;;;;4981439;28;20386;-75
2022/11/29 01:04:24;;;;;;;0.10;0.10;;;1.50;99.90;;;;;;4981228;28;20391;-74
2022/11/29 01:06:51;;;;;;;0.10;0.10;;;1.60;99.90;;;;;;4981193;28;20486;-75
2022/11/29 01:09:17;;;;;;;0.10;0.10;;;1.50;99.90;;;;;;4981239;28;20100;-75
2022/11/29 01:11:43;;;;;;;0.15;0.15;;;1.60;99.90;;;;;;4980572;28;20029;-75
2022/11/29 01:14:10;;;;;;;0.25;0.25;;;1.60;99.90;;;;;;4980905;28;20113;-78
2022/11/29 01:16:36;;;;;;;0.10;0.10;;;1.60;99.90;;;;;;4963641;28;20721;-75
2022/11/29 01:19:02;;;;;;;1.65;1.65;;;1.60;99.90;;;;;;4980319;28;20142;-75
2022/11/29 01:21:29;;;;;;;0.10;0.10;;;4.30;99.90;;;;;;4980648;28;20031;-75
2022/11/29 01:23:55;;;;;;;0.10;0.10;;;;;;;;;;4984161;28;20659;-75
2022/11/29 01:26:26;;;;;;;1.55;1.55;;;1.60;99.90;;;;;;4980440;28;20527;-75
2022/11/29 01:28:54;;;;;;;0.10;0.10;;;1.60;99.90;;;;;;4980669;28;20069;-75
2022/11/29 01:31:30;;;;;;;3.88;3.50;;;1.70;99.90;;;;;;4962498;28;20023;-75
2022/11/29 01:33:58;;;;;;;0.20;0.20;;;1.60;99.90;;;;;;4980393;28;20054;-75
2022/11/29 01:36:25;;;;;;;0.40;0.40;;;1.70;99.90;;;;;;4980298;28;20026;-75
2022/11/29 01:38:51;;;;;;;0.10;0.10;;;1.70;99.90;;;;;;4962827;28;20084;-75
2022/11/29 01:41:23;;;;;;;1.90;1.83;;;1.70;99.90;;;;;;4979741;28;20048;-75
2022/11/29 01:44:11;;;;;;;0.35;0.35;;;1.70;99.90;;;;;;4979582;28;20033;-75
2022/11/29 01:46:43;;;;;;;0.08;0.08;;;1.70;99.90;;;;;;4980016;28;20111;-75
2022/11/29 01:49:11;;;;;;;4.40;4.22;;;1.70;99.90;;;;;;4980267;28;20038;-76
2022/11/29 01:51:39;;;;;;;0.80;0.80;;;1.70;99.90;;;;;;4980861;28;20081;-75
2022/11/29 01:54:06;;;;;;;0.10;0.10;;;1.80;99.90;;;;;;4980930;28;20030;-75
2022/11/29 01:56:33;;;;;;;0.25;0.25;;;1.60;99.90;;;;;;4981102;28;20308;-75
2022/11/29 01:59:02;;;;;;;32.67;18.10;;;1.60;99.90;;;;;;4980237;28;20073;-77
2022/11/29 02:01:28;;;;;;;0.35;0.35;;;1.50;99.90;;;;;;4980635;28;20097;-75
2022/11/29 02:03:54;;;;;;;35.03;32.30;;;1.40;99.90;;;;;;4979698;28;20110;-75
2022/11/29 02:06:20;;;;;;;2.85;2.63;;;;;;;;;;4980208;28;20108;-76
2022/11/29 02:08:46;;;;;;;0.10;0.10;;;1.40;99.90;;;;;;4980494;28;20416;-75
2022/11/29 02:11:14;;;;;;;18.50;16.88;;;1.60;99.90;;;;;;4981072;28;20653;-75
2022/11/29 02:14:09;;;;;;;0.75;0.75;;;1.50;99.90;;;;;;4980827;28;20512;-75
2022/11/29 02:16:47;;;;;;;17.75;16.85;;;1.50;99.90;;;;;;4980271;28;20497;-75
2022/11/29 02:19:46;;;;;;;0.10;0.10;;;2.30;99.90;;;;;;4981463;28;20034;-76
2022/11/29 02:22:33;;;;;;;0.10;0.10;;;2.70;99.90;;;;;;4984799;28;20027;-75
2022/11/29 02:25:24;;;;;;;0.25;0.25;;;1.60;99.90;;;;;;4980379;28;20336;-75
2022/11/29 02:28:09;;;;;;;0.10;0.10;;;1.60;99.90;;;;;;4979895;28;20027;-74
2022/11/29 02:30:53;;;;;;;2.60;2.40;;;1.50;99.90;;;;;;4980438;28;20014;-74
2022/11/29 02:33:37;;;;;;;2.05;1.95;;;1.90;99.90;;;;;;4980419;28;20461;-75
2022/11/29 02:36:22;;;;;;;0.10;0.10;;;1.50;99.90;;;;;;4980243;28;20498;-74
2022/11/29 02:39:04;;;;;;;0.10;0.10;;;1.40;99.90;;;;;;4979290;28;20054;-74
2022/11/29 02:41:45;;;;;;;0.10;0.10;;;1.40;99.90;;;;;;4979577;28;20022;-74
2022/11/29 02:44:39;;;;;;;0.20;0.20;;;1.50;99.90;;;;;;4980296;28;20046;-75
2022/11/29 02:47:45;;;;;;;0.00;0.00;;;1.50;99.90;;;;;;4979620;28;20030;-75
2022/11/29 02:50:45;;;;;;;0.22;0.22;;;1.50;99.90;;;;;;4976533;28;20348;-74
2022/11/29 02:53:20;;;;;;;0.10;0.10;;;1.50;99.90;;;;;;4919009;29;20040;-74
2022/11/29 02:55:57;;;;;;;0.10;0.10;;;1.50;99.90;;;;;;4920353;29;20611;-75
2022/11/29 02:58:35;;;;;;;0.20;0.20;;;1.60;99.90;;;;;;4922304;29;20106;-74
2022/11/29 03:01:14;;;;;;;0.10;0.10;;;1.60;99.90;;;;;;4921815;29;20112;-75
2022/11/29 03:03:45;;;;;;;4.57;4.38;;;1.60;99.90;;;;;;4921556;29;20111;-74
2022/11/29 03:06:19;;;;;;;0.03;0.03;;;1.60;99.90;;;;;;4921462;29;20127;-74
2022/11/29 03:08:49;;;;;;;0.00;0.00;;;1.60;99.90;;;;;;4922169;29;20107;-75
2022/11/29 03:11:32;;;;;;;0.63;0.63;;;1.70;99.90;;;;;;4921883;29;20047;-74
2022/11/29 03:14:24;;;;;;;3.83;3.72;;;1.70;99.90;;;;;;4906432;29;20030;-75
2022/11/29 03:17:16;;;;;;;0.10;0.10;;;1.60;99.90;;;;;;4906831;29;20071;-74
2022/11/29 03:20:15;;;;;;;0.50;0.50;;;3.50;99.90;;;;;;4906657;29;20024;-74
2022/11/29 03:23:03;;;;;;;0.10;0.10;;;1.70;99.90;;;;;;4922775;29;20039;-74
2022/11/29 03:25:42;;;;;;;0.10;0.10;;;1.70;99.90;;;;;;4924427;29;20055;-74
2022/11/29 03:28:17;;;;;;;0.10;0.10;;;1.70;99.90;;;;;;4922861;29;20051;-74
2022/11/29 03:31:05;;;;;;;0.10;0.10;;;1.70;99.90;;;;;;4969316;28;20241;-74
2022/11/29 03:34:12;;;;;;;0.20;0.20;;;3.10;99.90;;;;;;4982561;28;20093;-77
2022/11/29 03:36:55;;;;;;;0.10;0.10;;;1.70;99.90;;;;;;4922367;29;20040;-74
2022/11/29 03:39:29;;;;;;;0.10;0.10;;;1.80;99.90;;;;;;4907589;29;20024;-74
2022/11/29 03:42:01;;;;;;;0.10;0.10;;;1.80;99.90;;;;;;4922134;29;20028;-74
2022/11/29 03:44:32;;;;;;;0.20;0.20;;;1.80;99.90;;;;;;4921840;29;20512;-74
2022/11/29 03:47:06;;;;;;;0.10;0.10;;;2.30;99.90;;;;;;4922186;29;20502;-74
2022/11/29 03:49:46;;;;;;;0.10;0.10;;;1.70;99.90;;;;;;4928702;29;20047;-75
2022/11/29 03:52:30;;;;;;;1.98;1.95;;;1.80;99.90;;;;;;4928691;29;20281;-75
2022/11/29 03:55:07;;;;;;;0.10;0.10;;;1.80;99.90;;;;;;4928676;29;20036;-75
2022/11/29 03:58:09;;;;;;;0.10;0.10;;;1.80;99.90;;;;;;4926959;29;20027;-75
2022/11/29 04:01:05;;;;;;;0.10;0.10;;;2.20;99.90;;;;;;4922093;29;20035;-74
2022/11/29 04:03:49;;;;;;;0.10;0.10;;;1.80;99.90;;;;;;4905934;29;20031;-75
2022/11/29 04:06:33;;;;;;;0.13;0.13;;;1.70;99.90;;;;;;4907477;28;20445;-75
2022/11/29 04:09:22;;;;;;;0.10;0.10;;;1.70;99.90;;;;;;4963968;28;20026;-74
2022/11/29 04:12:37;;;;;;;0.20;0.20;;;1.80;99.90;;;;;;4982091;28;20027;-75
2022/11/29 04:15:33;;;;;;;0.10;0.10;;;1.70;99.90;;;;;;4863900;29;20561;-74
2022/11/29 04:18:20;;;;;;;0.20;0.20;;;1.80;99.90;;;;;;4848715;29;20773;-75
2022/11/29 04:21:05;;;;;;;0.57;0.57;;;1.80;99.90;;;;;;4848991;29;20037;-74
2022/11/29 04:23:46;;;;;;;0.30;0.30;;;1.80;99.90;;;;;;4864339;29;20096;-74
2022/11/29 04:26:37;;;;;;;36.20;18.63;;;1.80;99.90;;;;;;4863902;29;20059;-75
2022/11/29 04:29:32;;;;;;;0.20;0.20;;;1.80;99.90;;;;;;4848170;29;20079;-75
2022/11/29 04:32:49;;;;;;;0.10;0.10;;;1.80;99.90;;;;;;4863827;29;20044;-76
2022/11/29 04:35:47;;;;;;;0.20;0.20;;;1.80;99.90;;;;;;4809548;29;20291;-74
2022/11/29 04:38:37;;;;;;;6.32;6.13;;;1.80;99.90;;;;;;4809939;29;20387;-74
2022/11/29 04:41:38;;;;;;;0.10;0.10;;;1.80;99.90;;;;;;4811262;29;20041;-75
2022/11/29 04:44:07;;;;;;;0.20;0.20;;;1.80;99.90;;;;;;4809887;29;20034;-75
2022/11/29 04:46:54;;;;;;;0.00;0.00;;;1.80;99.90;;;;;;4810913;29;20694;-75
2022/11/29 04:49:54;;;;;;;0.17;0.17;;;1.70;99.90;;;;;;4794743;29;20127;-74
2022/11/29 04:52:31;;;;;;;0.10;0.10;;;1.70;99.90;;;;;;4828747;29;20074;-75
2022/11/29 04:55:13;;;;;;;0.10;0.10;;;1.70;99.90;;;;;;4865613;29;20044;-75
2022/11/29 04:57:54;;;;;;;5.60;5.35;;;1.70;99.90;;;;;;4849075;29;20044;-74
2022/11/29 05:00:23;;;;;;;1.05;1.05;;;1.70;99.90;;;;;;4865170;29;20028;-75
2022/11/29 05:02:58;;;;;;;0.10;0.10;;;1.70;99.90;;;;;;4864397;29;20037;-74
2022/11/29 05:05:52;;;;;;;0.10;0.10;;;1.70;99.90;;;;;;4864318;29;20052;-74
2022/11/29 05:08:44;;;;;;;0.57;0.57;;;1.60;99.90;;;;;;4811814;29;20030;-74
2022/11/29 05:11:13;;;;;;;0.10;0.10;;;1.60;99.90;;;;;;4833898;29;20170;-74
2022/11/29 05:14:03;;;;;;;0.10;0.10;;;1.60;99.90;;;;;;4864455;29;20324;-74
2022/11/29 05:17:14;;;;;;;3.63;3.50;;;1.50;99.90;;;;;;4864407;29;20089;-74
2022/11/29 05:19:52;;;;;;;0.10;0.10;;;1.60;99.90;;;;;;4842189;29;20476;-74
2022/11/29 05:22:57;;;;;;;0.10;0.10;;;1.50;99.90;;;;;;4865070;29;20045;-77
2022/11/29 05:25:39;;;;;;;0.10;0.10;;;1.40;99.90;;;;;;4863968;29;20240;-76
2022/11/29 05:28:13;;;;;;;0.20;0.20;;;1.50;99.90;;;;;;4848906;29;20227;-75
2022/11/29 05:30:48;;;;;;;1.15;1.15;;;1.40;99.90;;;;;;4882417;29;20060;-75
2022/11/29 05:33:33;;;;;;;0.10;0.10;;;1.50;99.90;;;;;;4882170;29;20096;-75
2022/11/29 05:36:28;;;;;;;0.10;0.10;;;1.50;99.90;;;;;;4881893;29;20047;-75
2022/11/29 05:39:06;;;;;;;;;;;1.30;99.90;;;;;;4863794;29;20033;-75
2022/11/29 05:41:34;;;;;;;0.10;0.10;;;1.40;99.90;;;;;;4863097;29;19912;-76
2022/11/29 05:44:24;;;;;;;0.10;0.10;;;1.40;99.90;;;;;;4862875;29;20066;-74
2022/11/29 05:46:54;;;;;;;0.08;0.08;;;1.50;99.90;;;;;;4902792;29;20231;-75
2022/11/29 05:49:29;;;;;;;0.10;0.10;;;1.50;99.90;;;;;;4918775;29;20607;-75
2022/11/29 05:52:12;;;;;;;0.20;0.20;;;1.50;99.90;;;;;;4918849;29;20211;-75
2022/11/29 05:55:05;;;;;;;0.20;0.20;;;0.00;99.90;;;;;;4903949;29;20031;-75
2022/11/29 05:57:52;;;;;;;0.10;0.10;;;1.40;99.90;;;;;;4919958;29;20043;-75
2022/11/29 06:00:19;;;;;;;0.40;0.40;;;1.40;99.90;;;;;;4904732;29;20066;-75
2022/11/29 06:03:15;;;;;;;0.10;0.10;;;2.40;99.90;;;;;;4920432;29;20329;-75
2022/11/29 06:05:47;;;;;;;0.10;0.10;;;1.30;99.90;;;;;;4920712;29;20534;-75
2022/11/29 06:08:49;;;;;;;0.30;0.30;;;1.30;99.90;;;;;;4906742;29;20054;-74
2022/11/29 06:11:35;;;;;;;0.17;0.17;;;1.30;99.90;;;;;;4915971;29;20267;-75
2022/11/29 06:14:24;;;;;;;4.50;4.30;;;1.30;99.90;;;;;;4905073;29;20290;-75
2022/11/29 06:16:56;;;;;;;0.82;0.82;;;1.30;99.90;;;;;;4972008;28;20038;-75
2022/11/29 06:19:37;;;;;;;0.10;0.10;;;1.30;99.90;;;;;;4980027;28;20033;-75
2022/11/29 06:22:21;;;;;;;0.10;0.10;;;1.30;99.90;;;;;;4980004;28;20506;-75
2022/11/29 06:24:46;;;;;;;;;;;1.30;99.90;;;;;;4980105;28;20038;-75
2022/11/29 06:27:41;;;;;;;0.10;0.10;;;1.30;99.90;;;;;;4980399;28;19964;-75
2022/11/29 06:30:12;;;;;;;0.10;0.10;;;1.40;99.90;;;;;;4979721;28;20034;-75
2022/11/29 06:32:56;;;;;;;0.10;0.10;;;1.40;99.90;;;;;;4979726;28;20315;-75
2022/11/29 06:36:12;;;;;;;0.10;0.10;;;1.40;99.90;;;;;;4979567;28;20080;-75
2022/11/29 06:38:39;;;;;;;0.10;0.10;;;1.40;99.90;;;;;;4862031;29;20066;-75
2022/11/29 06:41:05;;;;;;;0.15;0.15;;;1.50;99.90;;;;;;4847056;29;20209;-76
2022/11/29 06:43:31;;;;;;;0.20;0.20;;;1.50;99.90;;;;;;4862256;29;20728;-75
2022/11/29 06:46:08;;;;;;;0.10;0.10;;;1.60;99.90;;;;;;4862340;29;20075;-75
2022/11/29 06:48:44;;;;;;;3.92;3.83;;;-0.40;99.90;;;;;;4862050;29;20045;-75
2022/11/29 06:51:20;;;;;;;0.10;0.10;;;1.70;99.90;;;;;;4861989;29;20029;-75
2022/11/29 06:53:54;;;;;;;0.20;0.20;;;1.70;99.90;;;;;;4862357;29;20101;-75
2022/11/29 06:56:31;;;;;;;0.10;0.10;;;1.80;99.90;;;;;;4862009;29;20069;-75
2022/11/29 06:59:19;;;;;;;0.10;0.10;;;1.80;99.90;;;;;;4846555;29;20036;-75
2022/11/29 07:02:16;;;;;;;0.20;0.20;;;1.90;99.90;;;;;;4862231;29;20037;-75
2022/11/29 07:05:10;;;;;;;0.10;0.10;;;1.90;99.90;;;;;;4813684;29;20071;-75
2022/11/29 07:07:37;;;;;;;0.20;0.20;;;1.90;99.90;;;;;;4812043;29;20047;-76
2022/11/29 07:10:04;;;;;;;0.20;0.20;;;1.90;99.90;;;;;;4814371;29;20106;-75
2022/11/29 07:12:30;;;;;;;0.10;0.10;;;2.00;99.90;;;;;;4812487;29;20111;-75
2022/11/29 07:14:56;;;;;;;0.10;0.10;;;2.00;99.90;;;;;;4832217;29;20411;-75
2022/11/29 07:17:40;;;;;;;0.10;0.10;;;2.10;99.90;;;;;;4900830;29;20120;-75
2022/11/29 07:20:07;;;;;;;2.10;2.03;;;;;;;;;;4900709;29;20082;-75
2022/11/29 07:22:54;;;;;;;0.22;0.22;;;1.90;99.90;;;;;;4905672;29;20151;-75
2022/11/29 07:25:34;;;;;;;0.08;0.08;;;1.90;99.90;;;;;;4884447;29;20032;-75
2022/11/29 07:28:38;;;;;;;0.40;0.40;;;4.70;99.90;;;;;;4883696;29;20127;-75
2022/11/29 07:31:28;;;;;;;0.05;0.05;;;2.00;99.90;;;;;;4895744;29;20385;-75
2022/11/29 07:34:02;;;;;;;0.10;0.10;;;1.90;99.90;;;;;;4884847;29;20370;-74
2022/11/29 07:36:56;;;;;;;0.10;0.10;;;2.10;99.90;;;;;;4887543;29;20116;-75
2022/11/29 07:39:42;;;;;;;9.18;8.88;;;-1.30;99.90;;;;;;4830144;29;20128;-75
2022/11/29 07:42:15;;;;;;;0.30;0.30;;;1.90;99.90;;;;;;4862389;29;20032;-75
2022/11/29 07:44:52;;;;;;;13.27;12.23;;;2.00;99.90;;;;;;4883651;29;20136;-75
2022/11/29 07:47:18;;;;;;;0.43;0.43;;;2.00;99.90;;;;;;4883269;29;20028;-75
2022/11/29 07:49:43;;;;;;;0.28;0.28;;;2.00;99.90;;;;;;4883061;29;20513;-75
2022/11/29 07:52:15;;;;;;;0.30;0.30;;;2.10;99.90;;;;;;4882660;29;20421;-76
2022/11/29 07:54:41;;;;;;;1.30;1.30;;;2.60;99.90;;;;;;4883242;29;20719;-75
2022/11/29 07:57:07;;;;;;;0.30;0.30;;;2.20;99.90;;;;;;4883121;29;20347;-74
2022/11/29 07:59:33;;;;;;;1.85;1.77;;;2.20;99.90;;;;;;4883628;29;20115;-75
2022/11/29 08:01:59;;;;;;;7.20;6.78;;;2.40;99.90;;;;;;4882888;29;20643;-75
2022/11/29 08:04:24;;;;;;;0.10;0.10;;;2.50;99.90;;;;;;4883316;29;20174;-75
2022/11/29 08:06:50;;;;;;;0.63;0.63;;;2.60;99.90;;;;;;4883031;29;20057;-75
2022/11/29 08:09:16;;;;;;;0.10;0.10;;;2.70;99.90;;;;;;4883701;29;20111;-75
2022/11/29 08:11:44;;;;;;;0.20;0.20;;;3.00;99.90;;;;;;4884603;29;20748;-75
2022/11/29 08:14:10;;;;;;;1.50;1.50;;;2.80;99.90;;;;;;4883968;29;20027;-75
2022/11/29 08:16:35;;;;;;;0.10;0.10;;;2.80;99.90;;;;;;4945294;28;20090;-75
2022/11/29 08:19:01;;;;;;;30.40;27.60;;;2.90;99.90;;;;;;4982538;28;20054;-75
2022/11/29 08:21:27;;;;;;;24.45;23.23;;;3.10;99.90;;;;;;4982431;28;20033;-75
2022/11/29 08:23:53;;;;;;;0.30;0.30;;;3.10;99.90;;;;;;4982598;28;20026;-75
2022/11/29 08:26:19;;;;;;;1.42;1.38;;;3.20;99.90;;;;;;4983217;28;20018;-75
2022/11/29 08:28:50;;;;;;;0.05;0.05;;;3.30;99.90;;;;;;4983296;28;20625;-75
2022/11/29 08:31:17;;;;;;;42.00;39.17;;;3.50;99.90;;;;;;4983857;28;20014;-75
2022/11/29 08:33:43;;;;;;;0.10;0.10;;;4.90;99.90;;;;;;4983512;28;20034;-75
2022/11/29 08:36:14;;;;;;;0.20;0.20;;;3.50;99.90;;;;;;4965272;28;20259;-75
2022/11/29 08:38:40;;;;;;;0.90;0.90;;;3.70;99.90;;;;;;4985298;28;20291;-76
2022/11/29 08:41:08;;;;;;;0.10;0.10;;;3.30;99.90;;;;;;4987059;28;20678;-75
2022/11/29 08:43:34;;;;;;;13.13;12.60;;;3.60;99.90;;;;;;4989660;28;20017;-74
2022/11/29 08:46:00;;;;;;;7.60;6.95;;;3.80;99.90;;;;;;4983001;28;20023;-75
2022/11/29 08:48:26;;;;;;;0.20;0.20;;;3.80;99.90;;;;;;4983125;28;20035;-75
2022/11/29 08:50:53;;;;;;;1.15;1.08;;;3.80;99.90;;;;;;4983268;28;20228;-75
2022/11/29 08:56:05;;;;;;;2.17;2.08;;;3.70;99.90;;;;;;4984529;28;20065;-75
2022/11/29 08:58:31;;;;;;;0.22;0.22;;;2.90;99.90;;;;;;4984072;28;20021;-74
2022/11/29 09:00:57;;;;;;;0.10;0.10;;;3.70;99.90;;;;;;4984789;28;20232;-75
2022/11/29 09:06:12;;;;;;;;;;;3.80;99.90;;;;;;4982331;28;20056;-75
2022/11/29 09:08:38;;;;;;;0.20;0.20;;;3.80;99.90;;;;;;4982262;28;19917;-75
2022/11/29 09:11:15;;;;;;;0.10;0.10;;;3.90;99.90;;;;;;4982019;28;20025;-75
2022/11/29 09:13:44;;;;;;;0.20;0.20;;;4.10;99.90;;;;;;4982728;28;20026;-75
2022/11/29 09:16:12;;;;;;;55.00;51.45;;;4.10;99.90;;;;;;4981854;28;20030;-75
2022/11/29 09:18:39;;;;;;;41.75;16.33;;;4.20;99.90;;;;;;4981638;28;20062;-75
2022/11/29 09:21:07;;;;;;;0.20;0.20;;;4.30;99.90;;;;;;4981516;28;20022;-75
2022/11/29 09:23:38;;;;;;;0.00;0.00;;;4.30;99.90;;;;;;4983320;28;20742;-75
2022/11/29 09:26:05;;;;;;;0.20;0.20;;;4.40;99.90;;;;;;4968889;28;20050;-74
2022/11/29 09:28:32;;;;;;;0.10;0.10;;;4.40;99.90;;;;;;4983257;28;20022;-74
2022/11/29 09:31:04;;;;;;;0.10;0.10;;;4.40;99.90;;;;;;4982947;28;20026;-75
2022/11/29 09:33:30;;;;;;;0.08;0.08;;;3.60;99.90;;;;;;4981696;28;20181;-75
2022/11/29 09:35:57;;;;;;;15.90;3.55;;;4.30;99.90;;;;;;4982575;28;20149;-75
2022/11/29 09:38:24;;;;;;;7.68;3.05;;;4.40;99.90;;;;;;4983258;28;20077;-75
2022/11/29 09:40:53;;;;;;;0.10;0.10;;;4.50;99.90;;;;;;4964215;28;20023;-74
2022/11/29 09:43:34;;;;;;;0.30;0.30;;;4.50;99.90;;;;;;4980750;28;20568;-75
2022/11/29 09:46:22;;;;;;;0.00;0.00;;;4.50;99.90;;;;;;4981318;28;20072;-75
2022/11/29 09:49:10;;;;;;;0.63;0.63;;;4.60;99.90;;;;;;4980319;28;20415;-74
2022/11/29 09:52:10;;;;;;;0.10;0.10;;;4.50;99.90;;;;;;4980191;28;20037;-75
2022/11/29 09:55:27;;;;;;;3.67;3.53;;;4.50;99.90;;;;;;4962621;28;20501;-74
2022/11/29 09:57:58;;;;;;;0.10;0.10;;;4.50;99.90;;;;;;4920013;29;20043;-74
2022/11/29 10:00:24;;;;;;;0.03;0.03;;;4.50;99.90;;;;;;4919854;28;20039;-74
2022/11/29 10:03:01;;;;;;;1.85;1.75;;;4.70;99.90;;;;;;4905427;29;20032;-74
2022/11/29 10:05:29;;;;;;;2.30;2.17;;;2.10;99.90;;;;;;4920511;29;20020;-75
2022/11/29 10:08:05;;;;;;;4.57;2.40;;;4.80;99.90;;;;;;4905422;29;20510;-74
2022/11/29 10:10:44;;;;;;;2.72;2.63;;;4.70;99.90;;;;;;4920385;29;20309;-74
2022/11/29 10:13:20;;;;;;;1.15;1.15;;;4.50;99.90;;;;;;4906478;29;20333;-74
2022/11/29 10:15:51;;;;;;;10.85;10.43;;;4.70;99.90;;;;;;4926051;29;20044;-75
2022/11/29 10:18:23;;;;;;;1.70;1.60;;;4.60;99.90;;;;;;4927935;29;20123;-75
2022/11/29 10:20:51;;;;;;;0.30;0.30;;;4.60;99.90;;;;;;4928492;29;20491;-75
2022/11/29 10:23:25;;;;;;;22.77;10.90;;;4.60;99.90;;;;;;4927243;29;20020;-75
2022/11/29 10:25:54;;;;;;;;;;;4.20;99.90;;;;;;4926964;28;20329;-74
2022/11/29 10:28:29;;;;;;;0.00;0.00;;;4.90;99.90;;;;;;4921013;29;19907;-75
2022/11/29 10:30:58;;;;;;;0.10;0.10;;;5.00;99.90;;;;;;4920209;29;20346;-74
2022/11/29 10:33:28;;;;;;;0.10;0.10;;;5.20;99.90;;;;;;4940132;28;20410;-74
2022/11/29 10:36:00;;;;;;;0.10;0.10;;;5.40;99.90;;;;;;4981547;28;20030;-76
2022/11/29 10:38:26;;;;;;;4.05;3.85;;;;;;;;;;4980728;28;20501;-74
2022/11/29 10:41:09;;;;;;;6.03;5.47;;;5.70;99.90;;;;;;4980291;28;20328;-74
2022/11/29 10:43:36;;;;;;;1.52;1.48;;;5.70;99.90;;;;;;4980412;28;20449;-75
2022/11/29 10:46:03;;;;;;;0.17;0.17;;;5.90;99.90;;;;;;4979905;28;20030;-74
2022/11/29 10:48:32;;;;;;;0.10;0.10;;;7.20;99.90;;;;;;4980658;28;20027;-75
2022/11/29 10:50:59;;;;;;;0.20;0.20;;;6.10;99.90;;;;;;4982780;28;20034;-75
2022/11/29 10:53:29;;;;;;;0.10;0.10;;;6.30;99.90;;;;;;4982828;28;20532;-74
2022/11/29 10:56:09;;;;;;;12.68;7.22;;;6.40;99.90;;;;;;4979620;28;20670;-76
2022/11/29 10:58:35;;;;;;;0.20;0.20;;;6.40;99.90;;;;;;4979463;28;20019;-74
2022/11/29 11:01:06;;;;;;;0.30;0.30;;;6.30;99.90;;;;;;4980266;28;20046;-74
2022/11/29 11:04:09;;;;;;;0.40;0.40;;;6.30;99.90;;;;;;4979693;28;20739;-74
2022/11/29 11:07:44;;;;;;;;;;;;;;;;;;;;;
2022/11/29 11:10:25;;;;;;;0.10;0.10;;;6.50;99.90;;;;;;4877421;29;20039;-75
2022/11/29 11:13:05;;;;;;;1.90;1.83;;;6.90;99.90;;;;;;4880243;29;20124;-74
2022/11/29 11:15:32;;;;;;;7.40;7.13;;;7.20;99.90;;;;;;4880052;29;20186;-75
2022/11/29 11:18:05;;;;;;;0.35;0.35;;;7.30;99.90;;;;;;4883332;29;20139;-74
2022/11/29 11:20:33;;;;;;;21.70;20.75;;;7.20;99.90;;;;;;4884185;29;20124;-75
2022/11/29 11:23:04;;;;;;;0.50;0.50;;;7.20;99.90;;;;;;4888510;29;20125;-74
2022/11/29 11:25:38;;;;;;;0.20;0.20;;;7.30;99.90;;;;;;4886691;29;20555;-74
2022/11/29 11:28:32;;;;;;;0.20;0.20;;;7.10;99.90;;;;;;4885986;29;20603;-74
2022/11/29 11:31:04;;;;;;;;;;;7.20;99.90;;;;;;4883205;29;20064;-74
2022/11/29 11:33:35;;;;;;;0.25;0.25;;;7.30;99.90;;;;;;4884757;29;19934;-75
2022/11/29 11:36:21;;;;;;;0.20;0.20;;;7.30;99.90;;;;;;4885560;29;20493;-75
2022/11/29 11:39:08;;;;;;;2.30;2.22;;;7.00;99.90;;;;;;4884968;29;20037;-76
2022/11/29 11:44:39;;;;;;;0.22;0.22;;;7.50;99.90;;;;;;4985565;28;20113;-75
2022/11/29 11:47:14;;;;;;;0.20;0.20;;;8.10;99.90;;;;;;4985761;28;20018;-75
2022/11/29 11:49:52;;;;;;;1.65;1.63;;;8.00;99.90;;;;;;4984214;28;20027;-74
2022/11/29 11:52:23;;;;;;;0.13;0.13;;;8.20;99.90;;;;;;4983730;28;20022;-74
2022/11/29 11:55:00;;;;;;;0.40;0.40;;;8.10;99.90;;;;;;4983206;28;20118;-75
2022/11/29 11:57:27;;;;;;;0.75;0.75;;;8.10;99.90;;;;;;4983205;28;20096;-75
2022/11/29 11:59:56;;;;;;;1.20;1.17;;;8.00;99.90;;;;;;4965737;28;20030;-74
2022/11/29 12:02:37;;;;;;;0.10;0.10;;;8.10;99.90;;;;;;4982940;28;20709;-74
2022/11/29 12:05:10;;;;;;;0.20;0.20;;;8.20;99.90;;;;;;4965818;28;20673;-74
2022/11/29 12:07:57;;;;;;;12.32;11.50;;;8.30;99.90;;;;;;4982946;28;20035;-74
2022/11/29 12:10:29;;;;;;;22.27;20.92;;;8.40;99.90;;;;;;4982604;28;20095;-75
2022/11/29 12:12:58;;;;;;;0.17;0.17;;;8.30;99.90;;;;;;4965646;28;20026;-74
2022/11/29 12:15:26;;;;;;;0.20;0.20;;;8.40;99.90;;;;;;4982919;28;20624;-74
2022/11/29 12:18:14;;;;;;;68.13;63.85;;;8.60;99.90;;;;;;4982192;28;20018;-74
2022/11/29 12:21:00;;;;;;;8.90;8.57;;;8.50;99.90;;;;;;4982860;28;20182;-75
2022/11/29 12:23:35;;;;;;;0.20;0.20;;;6.40;99.90;;;;;;4964778;28;20019;-75
2022/11/29 12:26:06;;;;;;;5.22;4.93;;;6.40;99.90;;;;;;4982908;28;20298;-75
2022/11/29 12:28:37;;;;;;;0.55;0.55;;;8.00;99.90;;;;;;4983428;28;20019;-74
2022/11/29 12:31:24;;;;;;;0.20;0.20;;;8.00;99.90;;;;;;4982337;28;20037;-75
2022/11/29 12:33:50;;;;;;;0.10;0.10;;;8.60;99.90;;;;;;4981801;28;20102;-74
2022/11/29 12:36:30;;;;;;;0.10;0.10;;;7.70;99.90;;;;;;4985372;28;20121;-74
2022/11/29 12:39:26;;;;;;;0.10;0.10;;;7.70;99.90;;;;;;4986303;28;20030;-74
2022/11/29 12:41:55;;;;;;;0.22;0.22;;;7.30;99.90;;;;;;4984411;28;20030;-73
2022/11/29 12:44:45;;;;;;;0.10;0.10;;;7.00;99.90;;;;;;4982214;28;20294;-75
2022/11/29 12:47:39;;;;;;;0.10;0.10;;;6.50;99.90;;;;;;4968314;28;20020;-74
2022/11/29 12:50:30;;;;;;;1.10;1.10;;;6.90;99.90;;;;;;4986848;28;20034;-75
2022/11/29 12:53:07;;;;;;;2.35;2.15;;;6.70;99.90;;;;;;4983965;28;20022;-74
2022/11/29 12:55:52;;;;;;;0.10;0.10;;;6.50;99.90;;;;;;4983970;28;20102;-74
2022/11/29 12:58:35;;;;;;;2.13;2.05;;;6.40;99.90;;;;;;4981356;28;20025;-74
2022/11/29 13:01:14;;;;;;;10.77;10.15;;;6.30;99.90;;;;;;4981429;28;20076;-75
2022/11/29 13:04:06;;;;;;;0.10;0.10;;;6.20;99.90;;;;;;4981470;28;20156;-75
2022/11/29 13:06:59;;;;;;;11.40;10.85;;;6.10;99.90;;;;;;4959454;28;20042;-74
2022/11/29 13:10:02;;;;;;;0.10;0.10;;;5.80;99.90;;;;;;4902908;29;20029;-74
2022/11/29 13:12:51;;;;;;;0.10;0.10;;;5.80;99.90;;;;;;4903681;29;20759;-74
2022/11/29 13:15:22;;;;;;;0.10;0.10;;;8.10;99.90;;;;;;4887453;29;20028;-75
2022/11/29 13:18:06;;;;;;;0.10;0.10;;;5.50;99.90;;;;;;4902915;29;20530;-74
2022/11/29 13:20:52;;;;;;;0.00;0.00;;;5.30;99.90;;;;;;4909278;29;20114;-74
2022/11/29 13:23:43;;;;;;;11.90;11.20;;;5.30;99.90;;;;;;4904073;29;20288;-74
2022/11/29 13:26:11;;;;;;;0.00;0.00;;;5.20;99.90;;;;;;4908252;29;20024;-74
2022/11/29 13:28:40;;;;;;;0.10;0.10;;;5.20;99.90;;;;;;4905510;29;20025;-73
2022/11/29 13:31:15;;;;;;;0.10;0.10;;;5.20;99.90;;;;;;4887513;29;20279;-74
2022/11/29 13:33:47;;;;;;;0.10;0.10;;;5.00;99.90;;;;;;4905583;29;20032;-74
2022/11/29 13:36:25;;;;;;;0.05;0.05;;;4.90;99.90;;;;;;4885208;29;20287;-74
2022/11/29 13:39:09;;;;;;;0.05;0.05;;;5.00;99.90;;;;;;4885077;29;20106;-74
2022/11/29 13:41:54;;;;;;;0.03;0.03;;;4.80;99.90;;;;;;4900577;29;20092;-74
2022/11/29 13:44:35;;;;;;;2.38;2.25;;;4.80;99.90;;;;;;4884741;29;20124;-74
2022/11/29 13:47:09;;;;;;;1.92;1.85;;;4.70;99.90;;;;;;4942296;28;20490;-74
2022/11/29 13:49:52;;;;;;;0.80;0.80;;;4.70;99.90;;;;;;4980877;28;20034;-74
2022/11/29 13:52:32;;;;;;;0.00;0.00;;;4.70;99.90;;;;;;4982963;28;20274;-75
2022/11/29 13:55:10;;;;;;;0.10;0.10;;;4.70;99.90;;;;;;4987553;28;20034;-73
2022/11/29 13:58:02;;;;;;;0.10;0.10;;;4.70;99.90;;;;;;4982988;28;20022;-74
2022/11/29 14:00:28;;;;;;;0.00;0.00;;;;;;;;;;4973114;28;20125;-75